Time;durP1;ratioP1;P1;durP2;ratioP2;P2;SDS_P1;SDS_P2;PMS_P1;PMS_P2;Temp;Humidity;BMP_temperature;BMP_pressure;BME280_temperature;BME280_humidity;BME280_pressure;Samples;Min_cycle;Max_cycle;Signal;HPM_P1;HPM_P2
2022/01/17 00:01:56;;;;;;;37.50;15.82;;;;;;;-1.14;100.00;97955.16;5175004;27;20107;-51
2022/01/17 00:04:22;;;;;;;43.65;19.40;;;;;;;-1.08;100.00;97953.91;5175418;27;20050;-51
2022/01/17 00:06:48;;;;;;;37.67;15.82;;;;;;;-1.12;100.00;97947.59;5174953;27;20512;-53
2022/01/17 00:09:15;;;;;;;39.95;17.52;;;;;;;-1.15;100.00;97938.25;5174903;27;20066;-55
2022/01/17 00:11:44;;;;;;;43.85;16.13;;;;;;;-1.04;100.00;97934.09;5174845;27;20050;-53
2022/01/17 00:14:15;;;;;;;41.97;17.25;;;;;;;-0.99;100.00;97931.28;5174959;27;20466;-52
2022/01/17 00:16:46;;;;;;;37.83;16.83;;;;;;;-0.97;100.00;97933.63;5174758;27;20053;-52
2022/01/17 00:19:36;;;;;;;40.80;17.15;;;;;;;-1.01;100.00;97925.41;5174543;27;20054;-54
2022/01/17 00:22:03;;;;;;;34.60;15.68;;;;;;;-0.96;100.00;97925.25;5174318;27;20167;-54
2022/01/17 00:24:29;;;;;;;39.28;16.25;;;;;;;-0.90;100.00;97927.75;5174551;27;20043;-55
2022/01/17 00:26:56;;;;;;;43.05;17.70;;;;;;;-0.94;100.00;97919.53;5174514;27;20046;-51
2022/01/17 00:29:22;;;;;;;35.45;16.70;;;;;;;-0.93;100.00;97905.00;5174514;27;20489;-51
2022/01/17 00:31:48;;;;;;;44.30;17.77;;;;;;;-0.87;100.00;97905.59;5174473;27;20050;-51
2022/01/17 00:34:15;;;;;;;40.80;18.23;;;;;;;-0.85;100.00;97898.00;5174392;27;20053;-51
2022/01/17 00:36:42;;;;;;;41.55;17.42;;;;;;;-0.85;100.00;97901.47;5174474;27;20563;-53
2022/01/17 00:39:08;;;;;;;44.75;18.88;;;;;;;-0.87;100.00;97909.06;5174272;27;20416;-53
2022/01/17 00:41:35;;;;;;;41.05;18.00;;;;;;;-0.84;100.00;97907.66;5174250;27;20050;-52
2022/01/17 00:44:01;;;;;;;45.38;18.80;;;;;;;-0.83;100.00;97901.97;5173629;27;20555;-55
2022/01/17 00:46:27;;;;;;;37.97;16.13;;;;;;;-0.81;100.00;97901.63;5174056;27;20046;-53
2022/01/17 00:48:54;;;;;;;51.47;18.27;;;;;;;-0.79;100.00;97907.50;5173725;27;20056;-55
2022/01/17 00:51:21;;;;;;;37.17;17.63;;;;;;;-0.80;100.00;97903.19;5174105;27;20054;-55
2022/01/17 00:53:48;;;;;;;45.13;18.52;;;;;;;-0.71;100.00;97895.91;5174053;27;20489;-55
2022/01/17 00:56:14;;;;;;;43.65;18.25;;;;;;;-0.68;100.00;97889.09;5173953;27;20054;-52
2022/01/17 00:58:40;;;;;;;44.58;19.10;;;;;;;-0.71;100.00;97885.91;5174077;27;20049;-52
2022/01/17 01:01:07;;;;;;;42.10;18.13;;;;;;;-0.76;100.00;97883.41;5173901;27;20061;-53
2022/01/17 01:03:33;;;;;;;42.28;18.10;;;;;;;-0.76;100.00;97871.88;5173993;27;20057;-52
2022/01/17 01:05:59;;;;;;;36.60;18.08;;;;;;;-0.71;100.00;97866.28;5174049;27;20417;-55
2022/01/17 01:08:26;;;;;;;36.78;17.90;;;;;;;-0.69;100.00;97864.09;5174135;27;20046;-55
2022/01/17 01:10:53;;;;;;;43.10;18.17;;;;;;;-0.70;100.00;97840.97;5173982;27;20054;-52
2022/01/17 01:13:22;;;;;;;41.28;18.75;;;;;;;-0.65;100.00;97830.03;5173936;27;20057;-54
2022/01/17 01:16:09;;;;;;;43.30;18.75;;;;;;;-0.65;100.00;97821.94;5173865;27;20052;-54
2022/01/17 01:18:49;;;;;;;38.33;16.85;;;;;;;-0.63;100.00;97797.38;5173847;27;20057;-52
2022/01/17 01:21:42;;;;;;;39.58;16.85;;;;;;;-0.60;100.00;97786.78;5173506;27;20424;-52
2022/01/17 01:29:45;;;;;;;40.10;15.70;;;;;;;-0.60;100.00;97745.59;5173745;27;20068;-56
2022/01/17 01:32:13;;;;;;;36.80;17.10;;;;;;;-0.58;100.00;97727.22;5173524;27;20558;-54
2022/01/17 01:34:43;;;;;;;43.38;15.90;;;;;;;-0.52;100.00;97712.47;5173673;27;20046;-53
2022/01/17 01:37:10;;;;;;;34.97;16.35;;;;;;;-0.49;100.00;97717.19;5173066;27;20088;-54
2022/01/17 01:39:38;;;;;;;36.35;15.85;;;;;;;-0.49;100.00;97690.28;5173355;27;20046;-52
2022/01/17 01:42:04;;;;;;;39.70;16.00;;;;;;;-0.53;100.00;97700.13;5173084;27;20491;-55
2022/01/17 01:44:31;;;;;;;40.30;17.45;;;;;;;-0.51;100.00;97687.13;5172425;27;20416;-52
2022/01/17 01:46:58;;;;;;;40.38;17.60;;;;;;;-0.48;100.00;97689.94;5172997;27;20046;-55
2022/01/17 01:49:26;;;;;;;37.85;16.63;;;;;;;-0.40;100.00;97692.88;5173030;27;20048;-51
2022/01/17 01:51:52;;;;;;;35.80;15.63;;;;;;;-0.37;100.00;97676.88;5173141;27;20046;-55
2022/01/17 01:54:20;;;;;;;33.90;15.65;;;;;;;-0.38;100.00;97674.50;5172747;27;20046;-53
2022/01/17 01:56:49;;;;;;;39.00;17.40;;;;;;;-0.42;100.00;97662.84;5172970;27;20100;-54
2022/01/17 01:59:19;;;;;;;38.92;16.73;;;;;;;-0.36;100.00;97659.63;5172520;27;20133;-53
2022/01/17 02:01:46;;;;;;;42.75;18.02;;;;;;;-0.32;100.00;97657.03;5172328;27;20049;-55
2022/01/17 02:04:13;;;;;;;36.90;16.92;;;;;;;-0.32;100.00;97654.34;5173012;27;20050;-52
2022/01/17 02:06:40;;;;;;;33.35;15.18;;;;;;;-0.28;100.00;97653.34;5173023;27;20427;-53
2022/01/17 02:09:06;;;;;;;36.85;15.82;;;;;;;-0.26;100.00;97640.34;5172753;27;20065;-53
2022/01/17 02:11:32;;;;;;;37.78;14.35;;;;;;;-0.36;100.00;97640.75;5172685;27;20050;-54
2022/01/17 02:13:59;;;;;;;36.92;16.13;;;;;;;-0.27;100.00;97619.13;5172722;27;20042;-55
2022/01/17 02:16:26;;;;;;;37.42;15.75;;;;;;;-0.29;100.00;97624.84;5172747;27;20046;-55
2022/01/17 02:18:52;;;;;;;45.17;18.27;;;;;;;-0.23;100.00;97611.97;5172579;27;20545;-55
2022/01/17 02:21:31;;;;;;;39.00;17.02;;;;;;;-0.17;100.00;97601.75;5172675;27;20409;-54
2022/01/17 02:23:57;;;;;;;37.88;16.42;;;;;;;-0.21;100.00;97582.78;5172866;27;20049;-55
2022/01/17 02:26:24;;;;;;;38.75;16.33;;;;;;;-0.17;100.00;97577.53;5172575;27;20053;-53
2022/01/17 02:28:52;;;;;;;36.78;16.95;;;;;;;-0.18;100.00;97551.72;5172547;27;20058;-52
2022/01/17 02:31:20;;;;;;;34.00;15.82;;;;;;;-0.16;100.00;97560.25;5172576;27;20072;-55
2022/01/17 02:33:47;;;;;;;34.40;15.25;;;;;;;-0.14;100.00;97563.41;5172628;27;20050;-52
2022/01/17 02:36:13;;;;;;;37.45;16.00;;;;;;;-0.14;100.00;97558.00;5172443;27;20420;-55
2022/01/17 02:38:41;;;;;;;38.83;16.08;;;;;;;-0.11;100.00;97560.03;5172111;27;20050;-56
2022/01/17 02:41:08;;;;;;;44.88;17.83;;;;;;;-0.10;100.00;97535.47;5172515;27;20086;-52
2022/01/17 02:43:35;;;;;;;39.28;16.05;;;;;;;-0.05;100.00;97523.69;5172021;27;20054;-54
2022/01/17 02:48:47;;;;;;;42.67;18.60;;;;;;;-0.06;100.00;97493.28;5172347;27;20049;-54
2022/01/17 02:51:13;;;;;;;44.25;18.63;;;;;;;-0.07;100.00;97475.53;5172378;27;20066;-54
2022/01/17 02:53:40;;;;;;;42.60;18.13;;;;;;;-0.01;100.00;97457.22;5172370;27;20389;-52
2022/01/17 02:56:08;;;;;;;43.08;17.27;;;;;;;0.00;100.00;97456.13;5172246;27;20046;-54
2022/01/17 02:58:35;;;;;;;43.28;18.05;;;;;;;0.03;100.00;97449.25;5172157;27;20054;-55
2022/01/17 03:01:05;;;;;;;49.13;19.27;;;;;;;-0.02;100.00;97437.59;5172081;27;20107;-55
2022/01/17 03:03:32;;;;;;;47.60;18.40;;;;;;;0.02;100.00;97415.38;5172009;27;20050;-55
2022/01/17 03:05:59;;;;;;;46.85;18.88;;;;;;;0.05;100.00;97398.53;5171989;27;20050;-53
2022/01/17 03:08:28;;;;;;;44.33;18.98;;;;;;;0.05;100.00;97380.44;5171920;27;20054;-53
2022/01/17 03:10:56;;;;;;;49.17;19.33;;;;;;;0.05;100.00;97372.38;5172429;27;20054;-54
2022/01/17 03:13:27;;;;;;;54.60;21.00;;;;;;;0.13;100.00;97354.50;5175939;27;20098;-54
2022/01/17 03:15:56;;;;;;;53.92;20.85;;;;;;;0.13;100.00;97347.19;5175747;27;20046;-55
2022/01/17 03:18:22;;;;;;;48.75;19.35;;;;;;;0.09;100.00;97334.75;5175802;27;20463;-54
2022/01/17 03:20:49;;;;;;;47.17;19.77;;;;;;;0.07;100.00;97313.53;5175317;27;20046;-56
2022/01/17 03:23:16;;;;;;;46.88;19.58;;;;;;;0.08;100.00;97296.25;5175786;27;20042;-54
2022/01/17 03:25:42;;;;;;;47.75;18.85;;;;;;;0.10;100.00;97277.84;5175315;27;20046;-55
2022/01/17 03:28:09;;;;;;;46.05;18.50;;;;;;;0.18;100.00;97259.94;5175498;27;20251;-55
2022/01/17 03:30:35;;;;;;;49.05;19.65;;;;;;;0.25;100.00;97243.19;5175257;27;20046;-55
2022/01/17 03:33:02;;;;;;;41.97;17.80;;;;;;;0.20;100.00;97236.13;5175367;27;20126;-54
2022/01/17 03:35:28;;;;;;;50.40;19.13;;;;;;;0.26;100.00;97220.50;5175346;27;20065;-55
2022/01/17 03:37:55;;;;;;;43.08;17.77;;;;;;;0.29;100.00;97217.91;5175211;27;20042;-52
2022/01/17 03:40:21;;;;;;;42.80;18.75;;;;;;;0.35;100.00;97200.34;5175395;27;20053;-53
2022/01/17 03:42:47;;;;;;;37.13;17.13;;;;;;;0.32;100.00;97202.94;5175372;27;20057;-55
2022/01/17 03:45:14;;;;;;;36.30;16.55;;;;;;;0.35;100.00;97184.19;5175174;27;20694;-55
2022/01/17 03:47:44;;;;;;;42.20;18.10;;;;;;;0.38;100.00;97175.41;5175378;27;20076;-54
2022/01/17 03:50:14;;;;;;;39.00;17.40;;;;;;;0.43;100.00;97158.97;5175444;27;20072;-55
2022/01/17 03:52:40;;;;;;;35.55;16.27;;;;;;;0.41;100.00;97155.84;5174945;27;20065;-52
2022/01/17 03:55:08;;;;;;;37.10;16.15;;;;;;;0.43;100.00;97150.91;5175225;27;20069;-55
2022/01/17 03:57:34;;;;;;;42.05;18.30;;;;;;;0.48;100.00;97144.44;5174917;27;20046;-55
2022/01/17 04:00:00;;;;;;;37.10;16.17;;;;;;;0.50;100.00;97133.31;5174837;27;20137;-54
2022/01/17 04:02:27;;;;;;;38.65;16.02;;;;;;;0.58;100.00;97129.66;5174967;27;20050;-53
2022/01/17 04:04:53;;;;;;;27.50;13.65;;;;;;;0.50;100.00;97130.59;5175129;27;20062;-55
2022/01/17 04:07:19;;;;;;;30.23;14.88;;;;;;;0.46;100.00;97123.22;5174737;27;20055;-55
2022/01/17 04:09:46;;;;;;;33.05;14.93;;;;;;;0.47;100.00;97124.03;5174714;27;20054;-54
2022/01/17 04:12:12;;;;;;;35.95;14.68;;;;;;;0.52;100.00;97112.19;5174998;27;20050;-55
2022/01/17 04:14:38;;;;;;;30.13;13.65;;;;;;;0.58;100.00;97108.88;5174796;27;20046;-56
2022/01/17 04:17:06;;;;;;;29.00;14.70;;;;;;;0.58;100.00;97095.41;5175178;27;20050;-54
2022/01/17 04:19:33;;;;;;;29.70;12.18;;;;;;;0.61;100.00;97100.09;5174710;27;20042;-56
2022/01/17 04:22:00;;;;;;;31.13;13.13;;;;;;;0.58;100.00;97089.22;5174647;27;20137;-54
2022/01/17 04:24:26;;;;;;;27.90;13.02;;;;;;;0.61;100.00;97091.22;5173682;27;20042;-55
2022/01/17 04:26:53;;;;;;;29.65;14.07;;;;;;;0.69;100.00;97080.22;5174674;27;20046;-53
2022/01/17 04:29:20;;;;;;;27.95;13.23;;;;;;;0.67;100.00;97074.44;5174614;27;20555;-52
2022/01/17 04:31:46;;;;;;;25.02;12.98;;;;;;;0.71;100.00;97069.09;5174644;27;20709;-55
2022/01/17 04:34:12;;;;;;;31.38;14.43;;;;;;;0.78;100.00;97068.47;5174591;27;20050;-55
2022/01/17 04:36:39;;;;;;;31.27;15.10;;;;;;;0.84;100.00;97067.88;5174369;27;20072;-54
2022/01/17 04:39:06;;;;;;;29.85;13.45;;;;;;;0.91;100.00;97072.63;5174566;27;20056;-55
2022/01/17 04:41:38;;;;;;;28.80;14.18;;;;;;;0.85;100.00;97066.72;5174089;27;20054;-54
2022/01/17 04:46:45;;;;;;;32.65;15.27;;;;;;;0.89;100.00;97053.31;5173621;27;20038;-55
2022/01/17 04:49:12;;;;;;;29.85;14.15;;;;;;;0.89;100.00;97043.28;5174139;27;20060;-55
2022/01/17 04:51:39;;;;;;;26.35;13.38;;;;;;;0.98;100.00;97045.81;5174298;27;20099;-56
2022/01/17 04:54:25;;;;;;;27.33;13.57;;;;;;;1.01;100.00;97042.41;5173978;27;20143;-56
2022/01/17 04:56:51;;;;;;;31.83;14.05;;;;;;;0.98;100.00;97032.31;5161635;27;20050;-55
2022/01/17 04:59:17;;;;;;;35.58;15.60;;;;;;;1.01;100.00;97028.13;5171142;27;20500;-60
2022/01/17 05:01:43;;;;;;;40.92;15.68;;;;;;;1.16;100.00;97019.94;5171467;27;20046;-59
2022/01/17 05:04:10;;;;;;;36.85;15.75;;;;;;;1.43;100.00;97006.59;5173674;27;20432;-53
2022/01/17 05:06:36;;;;;;;29.52;14.40;;;;;;;1.68;100.00;97007.06;5172948;27;20042;-56
2022/01/17 05:09:03;;;;;;;32.78;14.18;;;;;;;1.75;100.00;97022.59;5171324;27;20073;-52
2022/01/17 05:11:30;;;;;;;26.63;13.35;;;;;;;1.75;100.00;97022.59;5173645;27;20046;-57
2022/01/17 05:13:57;;;;;;;32.28;14.02;;;;;;;1.75;100.00;97030.72;5173590;27;20068;-54
2022/01/17 05:16:31;;;;;;;29.17;13.88;;;;;;;1.84;100.00;97015.06;5173763;27;20137;-52
2022/01/17 05:21:42;;;;;;;23.77;12.88;;;;;;;1.89;100.00;97010.13;5152716;27;20127;-54
2022/01/17 05:24:09;;;;;;;24.35;13.15;;;;;;;1.88;100.00;97010.50;5152558;27;20051;-59
2022/01/17 05:26:35;;;;;;;25.35;11.68;;;;;;;1.88;100.00;97002.38;5152360;27;20428;-53
2022/01/17 05:29:01;;;;;;;22.95;11.15;;;;;;;2.04;100.00;96994.94;5154625;27;20057;-55
2022/01/17 05:31:28;;;;;;;21.73;11.55;;;;;;;2.08;100.00;96982.25;5173319;27;20508;-59
2022/01/17 05:33:54;;;;;;;20.80;11.32;;;;;;;2.09;100.00;96978.41;5172804;27;20042;-58
2022/01/17 05:36:20;;;;;;;20.95;10.40;;;;;;;2.06;100.00;96972.94;5173322;27;20046;-57
2022/01/17 05:38:46;;;;;;;19.83;10.85;;;;;;;2.00;100.00;96963.56;5172732;27;20056;-54
2022/01/17 05:41:13;;;;;;;27.77;11.85;;;;;;;1.97;100.00;96962.41;5152246;27;20051;-60
2022/01/17 05:43:39;;;;;;;18.58;10.70;;;;;;;1.92;100.00;96948.41;5149880;27;20127;-54
2022/01/17 05:46:06;;;;;;;24.88;11.45;;;;;;;1.83;100.00;96933.22;5152154;27;20523;-58
2022/01/17 05:48:32;;;;;;;20.13;10.15;;;;;;;1.79;100.00;96918.84;5164722;27;20098;-59
2022/01/17 05:50:58;;;;;;;19.60;9.75;;;;;;;1.69;100.00;96905.97;5173353;27;20046;-60
2022/01/17 05:53:25;;;;;;;19.13;9.88;;;;;;;1.79;100.00;96882.97;5172902;27;20443;-51
2022/01/17 05:55:51;;;;;;;16.80;9.10;;;;;;;1.87;100.00;96866.50;5173058;27;20054;-52
2022/01/17 05:58:18;;;;;;;15.60;8.98;;;;;;;1.80;100.00;96882.63;5171375;27;20050;-55
2022/01/17 06:00:44;;;;;;;17.33;9.23;;;;;;;1.74;100.00;96886.75;5172787;27;20042;-54
2022/01/17 06:03:11;;;;;;;19.75;10.10;;;;;;;1.75;100.00;96880.22;5172513;27;20449;-52
2022/01/17 06:05:37;;;;;;;18.25;9.95;;;;;;;1.74;100.00;96878.66;5172953;27;20050;-59
2022/01/17 06:08:04;;;;;;;16.88;8.95;;;;;;;1.82;100.00;96847.13;5165426;27;20508;-54
2022/01/17 06:10:30;;;;;;;18.25;9.02;;;;;;;1.77;100.00;96833.94;5151833;27;20047;-55
2022/01/17 06:12:57;;;;;;;20.65;9.48;;;;;;;1.69;100.00;96829.56;5153067;27;20435;-56
2022/01/17 06:15:24;;;;;;;14.82;8.48;;;;;;;1.66;100.00;96806.75;5151993;27;20053;-61
2022/01/17 06:17:50;;;;;;;20.50;9.00;;;;;;;1.75;100.00;96779.50;5156549;27;20615;-59
2022/01/17 06:20:16;;;;;;;15.82;8.90;;;;;;;1.81;100.00;96751.78;5172880;27;20054;-60
2022/01/17 06:22:43;;;;;;;15.25;8.65;;;;;;;1.78;100.00;96744.41;5172415;27;20056;-54
2022/01/17 06:25:10;;;;;;;16.77;9.43;;;;;;;1.81;100.00;96746.38;5172221;27;20058;-53
2022/01/17 06:27:36;;;;;;;17.27;9.68;;;;;;;1.83;100.00;96730.59;5169493;27;20050;-59
2022/01/17 06:30:03;;;;;;;12.95;8.48;;;;;;;1.88;100.00;96729.50;5172220;27;20050;-57
2022/01/17 06:32:31;;;;;;;18.88;9.50;;;;;;;1.88;100.00;96721.38;5172239;27;20058;-56
2022/01/17 06:34:57;;;;;;;15.38;8.90;;;;;;;1.99;100.00;96713.41;5170211;27;20045;-54
2022/01/17 06:37:24;;;;;;;15.70;9.40;;;;;;;2.65;100.00;96681.25;5153513;27;20051;-51
2022/01/17 06:39:50;;;;;;;16.17;8.32;;;;;;;2.46;100.00;96720.88;5157691;27;20047;-51
2022/01/17 06:42:16;;;;;;;15.38;8.55;;;;;;;2.25;100.00;96740.34;5151496;27;20098;-54
2022/01/17 06:44:43;;;;;;;15.80;9.73;;;;;;;2.22;100.00;96780.88;5150556;27;20069;-58
2022/01/17 06:47:09;;;;;;;18.90;9.77;;;;;;;2.18;100.00;96794.34;5150613;27;20054;-55
2022/01/17 06:49:36;;;;;;;17.63;9.45;;;;;;;2.10;100.00;96809.69;5168261;27;20046;-54
2022/01/17 06:52:03;;;;;;;15.35;9.00;;;;;;;2.07;100.00;96832.06;5171816;27;20046;-51
2022/01/17 06:54:29;;;;;;;20.77;8.75;;;;;;;2.11;100.00;96840.19;5171906;27;20409;-57
2022/01/17 06:56:55;;;;;;;14.85;8.93;;;;;;;2.06;100.00;96827.00;5171693;27;20424;-53
2022/01/17 06:59:22;;;;;;;18.50;10.05;;;;;;;2.06;100.00;96799.97;5157006;27;20733;-50
2022/01/17 07:01:48;;;;;;;21.10;9.38;;;;;;;2.23;100.00;96774.31;5150486;27;20049;-51
2022/01/17 07:04:14;;;;;;;16.95;8.82;;;;;;;2.27;100.00;96745.41;5150716;27;20046;-54
2022/01/17 07:06:41;;;;;;;30.45;11.35;;;;;;;2.22;100.00;96746.50;5150803;27;20050;-52
2022/01/17 07:09:09;;;;;;;18.10;9.25;;;;;;;2.26;100.00;96731.09;5162849;27;20429;-52
2022/01/17 07:11:38;;;;;;;16.20;8.98;;;;;;;2.29;100.00;96730.34;5171335;27;20046;-51
2022/01/17 07:14:05;;;;;;;17.02;9.32;;;;;;;2.31;100.00;96727.28;5171798;27;20046;-54
2022/01/17 07:16:31;;;;;;;15.88;9.00;;;;;;;2.46;100.00;96709.28;5171561;27;20050;-51
2022/01/17 07:18:57;;;;;;;17.83;9.18;;;;;;;2.45;100.00;96708.50;5161372;27;20042;-53
2022/01/17 07:21:24;;;;;;;14.73;8.88;;;;;;;2.31;100.00;96692.91;5150372;27;20137;-53
2022/01/17 07:23:51;;;;;;;21.85;10.02;;;;;;;2.28;100.00;96665.84;5150239;27;20043;-53
2022/01/17 07:26:17;;;;;;;15.57;7.93;;;;;;;2.38;100.00;96645.47;5150266;27;20106;-51
2022/01/17 07:28:43;;;;;;;15.05;8.70;;;;;;;2.36;100.00;96638.50;5150570;27;20047;-50
2022/01/17 07:31:09;;;;;;;12.77;8.43;;;;;;;2.30;100.00;96639.22;5150398;27;20051;-51
2022/01/17 07:33:37;;;;;;;14.60;8.07;;;;;;;2.43;100.00;96623.50;5150151;27;20047;-53
2022/01/17 07:36:04;;;;;;;13.93;8.23;;;;;;;2.36;100.00;96591.75;5150327;27;20051;-50
2022/01/17 07:38:31;;;;;;;18.40;7.82;;;;;;;2.45;100.00;96575.22;5155107;27;20057;-50
2022/01/17 07:40:58;;;;;;;14.88;7.88;;;;;;;2.42;100.00;96570.56;5171131;27;20053;-54
2022/01/17 07:43:24;;;;;;;15.90;8.20;;;;;;;2.40;100.00;96553.94;5171132;27;20046;-53
2022/01/17 07:46:03;;;;;;;13.90;8.38;;;;;;;2.35;100.00;96553.13;5170913;27;20053;-54
2022/01/17 07:51:26;;;;;;;20.77;9.18;;;;;;;2.21;100.00;96568.47;5086746;28;20131;-52
2022/01/17 07:53:53;;;;;;;14.57;8.18;;;;;;;2.19;100.00;96563.44;5135246;27;20054;-51
2022/01/17 07:56:20;;;;;;;16.98;8.93;;;;;;;2.12;100.00;96549.84;5150460;27;20508;-54
2022/01/17 07:58:46;;;;;;;15.10;8.82;;;;;;;2.15;100.00;96516.66;5151556;27;20050;-55
2022/01/17 08:01:13;;;;;;;14.57;8.13;;;;;;;2.23;100.00;96493.97;5153663;27;20050;-51
2022/01/17 08:03:39;;;;;;;15.38;6.85;;;;;;;2.19;100.00;96478.84;5153622;27;20054;-51
2022/01/17 08:06:05;;;;;;;13.23;7.57;;;;;;;2.20;100.00;96447.97;5153957;27;20134;-54
2022/01/17 08:08:31;;;;;;;14.00;8.15;;;;;;;2.16;100.00;96447.19;5156177;27;20043;-53
2022/01/17 08:10:58;;;;;;;15.68;8.20;;;;;;;2.27;100.00;96413.66;5174463;27;20093;-55
2022/01/17 08:13:25;;;;;;;15.95;8.02;;;;;;;2.28;100.00;96382.78;5169992;27;20050;-55
2022/01/17 08:15:51;;;;;;;13.93;7.57;;;;;;;2.15;100.00;96400.47;5153514;27;20054;-55
2022/01/17 08:18:18;;;;;;;12.75;8.27;;;;;;;2.16;100.00;96395.81;5153270;27;20055;-56
2022/01/17 08:20:44;;;;;;;13.73;7.53;;;;;;;2.21;100.00;96381.97;5153308;27;20072;-53
2022/01/17 08:23:11;;;;;;;14.02;8.00;;;;;;;2.19;100.00;96393.13;5154334;27;20042;-54
2022/01/17 08:25:38;;;;;;;15.10;8.30;;;;;;;2.13;100.00;96391.94;5174168;27;20050;-54
2022/01/17 08:28:05;;;;;;;15.77;8.25;;;;;;;2.15;100.00;96354.50;5171810;27;20117;-56
2022/01/17 08:30:32;;;;;;;12.07;7.72;;;;;;;2.46;100.00;96336.88;5172491;27;20496;-53
2022/01/17 08:32:59;;;;;;;15.15;7.63;;;;;;;2.44;100.00;96358.13;5174348;27;20089;-53
2022/01/17 08:35:26;;;;;;;17.67;7.50;;;;;;;2.36;100.00;96356.53;5171222;27;20042;-53
2022/01/17 08:37:52;;;;;;;15.20;7.40;;;;;;;2.33;100.00;96351.88;5164498;27;20086;-55
2022/01/17 08:40:19;;;;;;;11.25;7.00;;;;;;;2.25;100.00;96351.09;5174022;27;20101;-54
2022/01/17 08:42:46;;;;;;;13.68;8.00;;;;;;;2.29;100.00;96345.69;5173977;27;20057;-53
2022/01/17 08:45:14;;;;;;;10.48;7.10;;;;;;;2.27;100.00;96339.91;5172321;27;20052;-55
2022/01/17 08:47:43;;;;;;;12.45;7.95;;;;;;;2.29;100.00;96338.34;5153113;27;20051;-56
2022/01/17 08:50:09;;;;;;;17.80;7.45;;;;;;;2.23;100.00;96334.50;5152661;27;20051;-55
2022/01/17 08:52:35;;;;;;;13.55;6.85;;;;;;;2.31;100.00;96319.06;5152741;27;20054;-54
2022/01/17 08:55:02;;;;;;;13.10;6.88;;;;;;;2.96;100.00;96295.66;5152792;27;20054;-53
2022/01/17 08:57:28;;;;;;;14.20;6.72;;;;;;;2.85;100.00;96330.84;5172945;27;20042;-55
2022/01/17 08:59:54;;;;;;;11.75;6.65;;;;;;;2.72;100.00;96338.53;5173348;27;20054;-60
2022/01/17 09:02:20;;;;;;;11.40;6.38;;;;;;;2.49;100.00;96357.00;5173267;27;20547;-55
2022/01/17 09:04:47;;;;;;;12.55;6.95;;;;;;;2.30;100.00;96326.41;5173922;27;20165;-50
2022/01/17 09:07:15;;;;;;;11.80;6.22;;;;;;;2.23;100.00;96304.75;5164155;27;20212;-54
2022/01/17 09:09:43;;;;;;;11.18;6.10;;;;;;;2.15;100.00;96281.53;5173058;27;20054;-52
2022/01/17 09:12:12;;;;;;;13.95;6.35;;;;;;;2.15;100.00;96270.72;5173335;27;20050;-53
2022/01/17 09:14:38;;;;;;;10.68;5.60;;;;;;;2.18;100.00;96259.16;5173370;27;20050;-51
2022/01/17 09:17:07;;;;;;;11.65;6.70;;;;;;;2.19;100.00;96247.19;5166429;27;20046;-55
2022/01/17 09:19:34;;;;;;;11.32;6.75;;;;;;;2.23;100.00;96226.38;5150289;27;20051;-56
2022/01/17 09:22:01;;;;;;;10.48;5.80;;;;;;;2.26;100.00;96206.66;5152662;27;20469;-53
2022/01/17 09:24:27;;;;;;;9.25;5.72;;;;;;;2.30;100.00;96207.47;5152477;27;20046;-51
2022/01/17 09:26:54;;;;;;;11.43;6.03;;;;;;;2.29;100.00;96197.78;5153406;27;20082;-52
2022/01/17 09:29:20;;;;;;;8.48;5.28;;;;;;;2.24;100.00;96202.81;5152205;27;20052;-54
2022/01/17 09:31:47;;;;;;;8.27;5.45;;;;;;;2.24;100.00;96187.38;5159876;27;20522;-52
2022/01/17 09:34:13;;;;;;;9.55;5.57;;;;;;;2.26;100.00;96189.66;5163451;27;20046;-55
2022/01/17 09:36:40;;;;;;;10.38;5.13;;;;;;;2.31;100.00;96171.16;5172981;27;20054;-52
2022/01/17 09:39:08;;;;;;;9.40;5.28;;;;;;;2.37;100.00;96158.03;5193070;27;20048;-54
2022/01/17 09:41:35;;;;;;;8.80;4.88;;;;;;;2.42;100.00;96181.97;5182963;27;20054;-54
2022/01/17 09:44:04;;;;;;;6.45;4.50;;;;;;;2.48;100.00;96160.75;5172612;27;20042;-54
2022/01/17 09:46:35;;;;;;;7.10;4.40;;;;;;;2.57;100.00;96172.75;5172637;27;20050;-53
2022/01/17 09:49:13;;;;;;;9.25;4.38;;;;;;;2.50;100.00;96178.16;5172964;27;20137;-53
2022/01/17 09:52:03;;;;;;;9.25;4.78;;;;;;;2.48;100.00;96187.78;5157251;27;20055;-52
2022/01/17 09:54:32;;;;;;;8.05;4.38;;;;;;;2.46;100.00;96174.66;5151553;27;20085;-53
2022/01/17 09:57:01;;;;;;;8.57;4.60;;;;;;;2.39;100.00;96163.81;5165428;27;20137;-52
2022/01/17 09:59:30;;;;;;;6.70;3.63;;;;;;;2.45;100.00;96166.94;5172692;27;20046;-55
2022/01/17 10:01:56;;;;;;;8.85;4.60;;;;;;;2.35;100.00;96168.47;5172473;27;20095;-53
2022/01/17 10:04:23;;;;;;;8.98;4.22;;;;;;;2.40;100.00;96170.78;5172439;27;20042;-54
2022/01/17 10:06:53;;;;;;;6.63;4.63;;;;;;;2.35;100.00;96171.94;5159392;27;20488;-55
2022/01/17 10:09:22;;;;;;;8.50;4.03;;;;;;;2.40;100.00;96156.47;5151619;27;20055;-55
2022/01/17 10:12:08;;;;;;;6.82;4.03;;;;;;;2.44;100.00;96132.94;5151640;27;20069;-53
2022/01/17 10:14:36;;;;;;;4.97;3.78;;;;;;;2.52;100.00;96126.38;5151588;27;20046;-55
2022/01/17 10:17:05;;;;;;;6.78;3.83;;;;;;;2.58;100.00;96128.31;5165519;27;20053;-52
2022/01/17 10:19:31;;;;;;;9.07;4.22;;;;;;;2.62;100.00;96124.84;5172399;27;20076;-54
2022/01/17 10:22:00;;;;;;;9.10;4.45;;;;;;;2.72;100.00;96121.34;5169604;27;20042;-54
2022/01/17 10:24:35;;;;;;;8.63;4.38;;;;;;;2.74;100.00;96135.28;5172173;27;20096;-55
2022/01/17 10:27:21;;;;;;;5.28;3.75;;;;;;;2.78;100.00;96122.50;5172364;27;20054;-52
2022/01/17 10:35:19;;;;;;;6.05;3.72;;;;;;;2.93;100.00;96128.66;5151187;27;20045;-56
2022/01/17 10:37:57;;;;;;;5.30;3.53;;;;;;;2.92;100.00;96132.53;5151428;27;20054;-53
2022/01/17 10:40:23;;;;;;;7.55;3.78;;;;;;;2.85;100.00;96146.84;5150732;27;20553;-56
2022/01/17 10:42:51;;;;;;;9.75;3.45;;;;;;;2.86;100.00;96145.69;5149427;27;20051;-55
2022/01/17 10:45:20;;;;;;;5.28;3.05;;;;;;;2.85;100.00;96146.84;5150304;27;20047;-55
2022/01/17 10:47:48;;;;;;;14.48;4.22;;;;;;;2.76;100.00;96155.34;5150620;27;20068;-52
2022/01/17 10:50:18;;;;;;;4.55;3.35;;;;;;;2.77;100.00;96162.31;5151119;27;20103;-53
2022/01/17 10:52:47;;;;;;;3.08;2.30;;;;;;;2.72;100.00;96173.50;5169065;27;20050;-52
2022/01/17 10:55:16;;;;;;;6.85;2.78;;;;;;;2.72;100.00;96164.63;5169990;27;20150;-51
2022/01/17 10:57:46;;;;;;;4.18;2.38;;;;;;;2.78;100.00;96174.69;5157372;27;20057;-55
2022/01/17 11:00:15;;;;;;;8.63;2.55;;;;;;;2.69;100.00;96185.09;5150829;27;20061;-55
2022/01/17 11:02:45;;;;;;;2.47;1.80;;;;;;;2.66;100.00;96185.09;5150927;27;20142;-53
2022/01/17 11:05:13;;;;;;;5.47;1.90;;;;;;;2.69;100.00;96178.94;5151033;27;20524;-51
2022/01/17 11:07:41;;;;;;;5.22;1.65;;;;;;;2.64;100.00;96187.44;5162075;27;20073;-54
2022/01/17 11:10:14;;;;;;;2.70;1.88;;;;;;;2.60;100.00;96198.25;5172132;27;20050;-55
2022/01/17 11:12:40;;;;;;;3.92;2.08;;;;;;;2.51;100.00;96209.44;5171441;27;20057;-56
2022/01/17 11:15:06;;;;;;;4.25;1.80;;;;;;;2.42;100.00;96214.44;5171727;27;20048;-56
2022/01/17 11:17:35;;;;;;;9.98;2.85;;;;;;;2.41;100.00;96204.78;5170685;27;20046;-57
2022/01/17 11:20:06;;;;;;;6.68;1.75;;;;;;;2.35;100.00;96204.38;5171670;27;20046;-54
2022/01/17 11:22:35;;;;;;;4.65;1.85;;;;;;;2.37;100.00;96222.94;5171456;27;20418;-56
2022/01/17 11:25:02;;;;;;;3.13;1.70;;;;;;;2.24;100.00;96225.22;5170766;27;20046;-56
2022/01/17 11:27:29;;;;;;;2.13;1.30;;;;;;;2.20;100.00;96235.25;5171556;27;20426;-58
2022/01/17 11:29:55;;;;;;;1.80;1.50;;;;;;;2.16;100.00;96256.06;5171070;27;20496;-59
2022/01/17 11:32:23;;;;;;;1.40;1.17;;;;;;;1.98;100.00;96277.59;5172048;27;20050;-56
2022/01/17 11:34:49;;;;;;;1.70;1.27;;;;;;;1.81;100.00;96276.34;5172610;27;20080;-56
2022/01/17 11:37:18;;;;;;;3.40;1.13;;;;;;;1.71;100.00;96290.56;5172966;27;20050;-53
2022/01/17 11:39:46;;;;;;;1.65;0.95;;;;;;;1.62;100.00;96292.81;5195858;27;20057;-60
2022/01/17 11:42:39;;;;;;;1.15;0.70;;;;;;;1.46;100.00;96319.31;5195835;27;20046;-54
2022/01/17 11:45:34;;;;;;;3.22;0.85;;;;;;;1.29;100.00;96307.25;5189962;27;20043;-58
2022/01/17 11:48:03;;;;;;;0.93;0.80;;;;;;;1.18;100.00;96299.06;5174800;27;20181;-53